sensor_id;sensor_type;location;lat;lon;timestamp;temperature;humidity
27707;DHT22;36332;51.384;0.040;2024-02-26T00:04:51;7.10;99.90
27707;DHT22;36332;51.384;0.040;2024-02-26T00:09:48;7.00;99.90
27707;DHT22;36332;51.384;0.040;2024-02-26T00:12:15;7.40;99.90
27707;DHT22;36332;51.384;0.040;2024-02-26T00:14:45;7.20;99.90
27707;DHT22;36332;51.384;0.040;2024-02-26T00:22:11;7.00;99.90
27707;DHT22;36332;51.384;0.040;2024-02-26T00:24:40;7.00;99.90
27707;DHT22;36332;51.384;0.040;2024-02-26T00:27:09;7.00;99.90
27707;DHT22;36332;51.384;0.040;2024-02-26T00:29:38;7.00;99.90
27707;DHT22;36332;51.384;0.040;2024-02-26T00:32:07;7.00;99.90
27707;DHT22;36332;51.384;0.040;2024-02-26T01:11:40;7.00;99.90
27707;DHT22;36332;51.384;0.040;2024-02-26T01:19:04;7.10;99.90
27707;DHT22;36332;51.384;0.040;2024-02-26T01:28:59;7.10;99.90
27707;DHT22;36332;51.384;0.040;2024-02-26T01:33:55;7.10;99.90
27707;DHT22;36332;51.384;0.040;2024-02-26T01:46:16;8.30;99.90
27707;DHT22;36332;51.384;0.040;2024-02-26T01:48:46;7.10;99.90
27707;DHT22;36332;51.384;0.040;2024-02-26T01:51:18;7.00;99.90
27707;DHT22;36332;51.384;0.040;2024-02-26T01:53:48;7.10;99.90
27707;DHT22;36332;51.384;0.040;2024-02-26T01:56:17;6.60;99.90
27707;DHT22;36332;51.384;0.040;2024-02-26T02:01:15;6.90;99.90
27707;DHT22;36332;51.384;0.040;2024-02-26T02:06:13;7.10;99.90
27707;DHT22;36332;51.384;0.040;2024-02-26T02:08:42;7.00;99.90
27707;DHT22;36332;51.384;0.040;2024-02-26T02:33:25;7.00;99.90
27707;DHT22;36332;51.384;0.040;2024-02-26T02:40:52;7.30;99.90
27707;DHT22;36332;51.384;0.040;2024-02-26T02:43:20;7.10;99.90
27707;DHT22;36332;51.384;0.040;2024-02-26T02:45:49;7.10;99.90
27707;DHT22;36332;51.384;0.040;2024-02-26T03:03:08;6.90;99.90
27707;DHT22;36332;51.384;0.040;2024-02-26T03:17:56;7.00;99.90
27707;DHT22;36332;51.384;0.040;2024-02-26T03:30:18;7.20;99.90
27707;DHT22;36332;51.384;0.040;2024-02-26T03:32:48;7.00;99.90
27707;DHT22;36332;51.384;0.040;2024-02-26T03:37:45;7.00;99.90
27707;DHT22;36332;51.384;0.040;2024-02-26T03:45:11;6.80;99.90
27707;DHT22;36332;51.384;0.040;2024-02-26T04:17:30;6.90;99.90
27707;DHT22;36332;51.384;0.040;2024-02-26T04:19:58;6.90;99.90
27707;DHT22;36332;51.384;0.040;2024-02-26T04:27:23;6.80;99.90
27707;DHT22;36332;51.384;0.040;2024-02-26T04:29:52;6.80;99.90
27707;DHT22;36332;51.384;0.040;2024-02-26T04:32:23;6.80;99.90
27707;DHT22;36332;51.384;0.040;2024-02-26T04:39:47;6.70;99.90
27707;DHT22;36332;51.384;0.040;2024-02-26T04:54:38;6.10;99.90
27707;DHT22;36332;51.384;0.040;2024-02-26T05:02:03;6.80;99.90
27707;DHT22;36332;51.384;0.040;2024-02-26T05:04:31;6.80;99.90
27707;DHT22;36332;51.384;0.040;2024-02-26T05:14:25;6.80;99.90
27707;DHT22;36332;51.384;0.040;2024-02-26T05:24:19;7.10;99.90
27707;DHT22;36332;51.384;0.040;2024-02-26T05:46:46;6.50;99.90
27707;DHT22;36332;51.384;0.040;2024-02-26T05:59:07;6.70;99.90
27707;DHT22;36332;51.384;0.040;2024-02-26T06:06:33;6.70;99.90
27707;DHT22;36332;51.384;0.040;2024-02-26T06:09:02;6.80;99.90
27707;DHT22;36332;51.384;0.040;2024-02-26T06:11:32;6.80;99.90
27707;DHT22;36332;51.384;0.040;2024-02-26T06:21:29;6.60;99.90
27707;DHT22;36332;51.384;0.040;2024-02-26T06:26:25;6.60;99.90
27707;DHT22;36332;51.384;0.040;2024-02-26T06:43:56;6.40;99.90
27707;DHT22;36332;51.384;0.040;2024-02-26T06:48:54;6.40;99.90
27707;DHT22;36332;51.384;0.040;2024-02-26T06:51:22;6.40;99.90
27707;DHT22;36332;51.384;0.040;2024-02-26T07:03:45;6.30;99.90
27707;DHT22;36332;51.384;0.040;2024-02-26T07:06:12;6.40;99.90
27707;DHT22;36332;51.384;0.040;2024-02-26T07:16:09;6.30;99.90
27707;DHT22;36332;51.384;0.040;2024-02-26T07:18:39;6.20;99.90
27707;DHT22;36332;51.384;0.040;2024-02-26T07:31:01;6.20;99.90
27707;DHT22;36332;51.384;0.040;2024-02-26T07:35:58;6.10;99.90
27707;DHT22;36332;51.384;0.040;2024-02-26T07:53:31;6.50;99.90
27707;DHT22;36332;51.384;0.040;2024-02-26T07:58:29;6.60;99.90
27707;DHT22;36332;51.384;0.040;2024-02-26T08:00:57;6.30;99.90
27707;DHT22;36332;51.384;0.040;2024-02-26T08:21:08;6.40;99.90
27707;DHT22;36332;51.384;0.040;2024-02-26T08:24:03;6.30;99.90
27707;DHT22;36332;51.384;0.040;2024-02-26T08:26:34;6.40;99.90
27707;DHT22;36332;51.384;0.040;2024-02-26T08:34:01;6.50;99.90
27707;DHT22;36332;51.384;0.040;2024-02-26T08:36:33;6.50;99.90
27707;DHT22;36332;51.384;0.040;2024-02-26T08:39:03;6.20;99.90
27707;DHT22;36332;51.384;0.040;2024-02-26T08:44:01;6.50;99.90
27707;DHT22;36332;51.384;0.040;2024-02-26T08:46:30;6.60;99.90
27707;DHT22;36332;51.384;0.040;2024-02-26T08:49:26;6.60;99.90
27707;DHT22;36332;51.384;0.040;2024-02-26T08:51:55;6.50;99.90
27707;DHT22;36332;51.384;0.040;2024-02-26T08:54:24;6.70;99.90
27707;DHT22;36332;51.384;0.040;2024-02-26T08:59:25;6.70;99.90
27707;DHT22;36332;51.384;0.040;2024-02-26T09:01:57;6.90;99.90
27707;DHT22;36332;51.384;0.040;2024-02-26T09:09:24;6.70;99.90
27707;DHT22;36332;51.384;0.040;2024-02-26T09:11:56;6.80;99.90
27707;DHT22;36332;51.384;0.040;2024-02-26T09:14:26;6.80;99.90
27707;DHT22;36332;51.384;0.040;2024-02-26T09:16:56;6.80;99.90
27707;DHT22;36332;51.384;0.040;2024-02-26T09:19:26;6.90;99.90
27707;DHT22;36332;51.384;0.040;2024-02-26T09:24:26;6.80;99.90
27707;DHT22;36332;51.384;0.040;2024-02-26T09:26:56;6.70;99.90
27707;DHT22;36332;51.384;0.040;2024-02-26T09:34:25;6.80;99.90
27707;DHT22;36332;51.384;0.040;2024-02-26T09:36:55;6.90;99.90
27707;DHT22;36332;51.384;0.040;2024-02-26T09:39:36;6.90;99.90
27707;DHT22;36332;51.384;0.040;2024-02-26T09:44:40;7.00;99.90
27707;DHT22;36332;51.384;0.040;2024-02-26T09:49:50;7.00;99.90
27707;DHT22;36332;51.384;0.040;2024-02-26T09:52:28;7.10;99.90
27707;DHT22;36332;51.384;0.040;2024-02-26T09:54:56;7.00;99.90
27707;DHT22;36332;51.384;0.040;2024-02-26T09:57:28;6.80;99.90
27707;DHT22;36332;51.384;0.040;2024-02-26T09:59:59;7.00;99.90
27707;DHT22;36332;51.384;0.040;2024-02-26T10:02:31;7.00;99.90
27707;DHT22;36332;51.384;0.040;2024-02-26T10:05:02;7.00;99.90
27707;DHT22;36332;51.384;0.040;2024-02-26T10:07:35;7.10;99.90
27707;DHT22;36332;51.384;0.040;2024-02-26T10:10:03;7.00;99.90
27707;DHT22;36332;51.384;0.040;2024-02-26T10:12:33;7.10;99.90
27707;DHT22;36332;51.384;0.040;2024-02-26T10:15:00;7.10;99.90
27707;DHT22;36332;51.384;0.040;2024-02-26T10:20:15;7.20;99.90
27707;DHT22;36332;51.384;0.040;2024-02-26T10:22:46;7.10;99.90
27707;DHT22;36332;51.384;0.040;2024-02-26T10:25:14;7.20;99.90
27707;DHT22;36332;51.384;0.040;2024-02-26T10:27:43;7.30;99.90
27707;DHT22;36332;51.384;0.040;2024-02-26T10:30:20;7.10;99.90
27707;DHT22;36332;51.384;0.040;2024-02-26T10:35:18;7.30;99.90
27707;DHT22;36332;51.384;0.040;2024-02-26T10:37:50;7.30;99.90
27707;DHT22;36332;51.384;0.040;2024-02-26T10:40:18;7.40;99.90
27707;DHT22;36332;51.384;0.040;2024-02-26T10:42:47;7.50;99.90
27707;DHT22;36332;51.384;0.040;2024-02-26T10:45:15;7.80;99.90
27707;DHT22;36332;51.384;0.040;2024-02-26T10:47:43;7.50;99.90
27707;DHT22;36332;51.384;0.040;2024-02-26T10:50:15;7.50;99.90
27707;DHT22;36332;51.384;0.040;2024-02-26T10:52:44;7.30;99.90
27707;DHT22;36332;51.384;0.040;2024-02-26T10:55:16;7.30;99.90
27707;DHT22;36332;51.384;0.040;2024-02-26T10:57:52;7.30;99.90
27707;DHT22;36332;51.384;0.040;2024-02-26T11:00:22;9.70;99.90
27707;DHT22;36332;51.384;0.040;2024-02-26T11:02:50;7.30;99.90
27707;DHT22;36332;51.384;0.040;2024-02-26T11:05:19;7.30;99.90
27707;DHT22;36332;51.384;0.040;2024-02-26T11:07:47;7.40;99.90
27707;DHT22;36332;51.384;0.040;2024-02-26T11:10:17;7.40;99.90
27707;DHT22;36332;51.384;0.040;2024-02-26T11:12:46;7.40;99.90
27707;DHT22;36332;51.384;0.040;2024-02-26T11:17:43;7.40;99.90
27707;DHT22;36332;51.384;0.040;2024-02-26T11:20:12;7.20;99.90
27707;DHT22;36332;51.384;0.040;2024-02-26T11:22:41;7.50;99.90
27707;DHT22;36332;51.384;0.040;2024-02-26T11:25:09;7.50;99.90
27707;DHT22;36332;51.384;0.040;2024-02-26T11:27:48;7.50;99.90
27707;DHT22;36332;51.384;0.040;2024-02-26T11:30:17;7.50;99.90
27707;DHT22;36332;51.384;0.040;2024-02-26T11:32:47;7.50;99.90
27707;DHT22;36332;51.384;0.040;2024-02-26T11:35:17;7.50;99.90
27707;DHT22;36332;51.384;0.040;2024-02-26T11:37:56;7.60;99.90
27707;DHT22;36332;51.384;0.040;2024-02-26T11:40:25;7.70;99.90
27707;DHT22;36332;51.384;0.040;2024-02-26T11:42:54;7.70;99.90
27707;DHT22;36332;51.384;0.040;2024-02-26T11:48:13;6.90;99.90
27707;DHT22;36332;51.384;0.040;2024-02-26T11:50:42;7.80;99.90
27707;DHT22;36332;51.384;0.040;2024-02-26T11:53:29;7.80;99.90
27707;DHT22;36332;51.384;0.040;2024-02-26T11:58:53;7.80;99.90
27707;DHT22;36332;51.384;0.040;2024-02-26T12:04:14;7.90;99.90
27707;DHT22;36332;51.384;0.040;2024-02-26T12:06:49;7.40;99.90
27707;DHT22;36332;51.384;0.040;2024-02-26T12:09:37;7.70;99.90
27707;DHT22;36332;51.384;0.040;2024-02-26T12:12:07;7.80;99.90
27707;DHT22;36332;51.384;0.040;2024-02-26T12:14:53;7.60;99.90
27707;DHT22;36332;51.384;0.040;2024-02-26T12:17:23;7.60;99.90
27707;DHT22;36332;51.384;0.040;2024-02-26T12:19:51;7.90;99.90
27707;DHT22;36332;51.384;0.040;2024-02-26T12:22:21;7.40;99.90
27707;DHT22;36332;51.384;0.040;2024-02-26T12:24:58;7.70;99.90
27707;DHT22;36332;51.384;0.040;2024-02-26T12:27:26;7.80;99.90
27707;DHT22;36332;51.384;0.040;2024-02-26T12:29:54;7.90;99.90
27707;DHT22;36332;51.384;0.040;2024-02-26T12:34:51;7.60;99.90
27707;DHT22;36332;51.384;0.040;2024-02-26T12:37:19;8.00;99.90
27707;DHT22;36332;51.384;0.040;2024-02-26T12:39:47;7.80;99.90
27707;DHT22;36332;51.384;0.040;2024-02-26T12:42:15;7.80;99.90
27707;DHT22;36332;51.384;0.040;2024-02-26T12:44:45;7.80;99.90
27707;DHT22;36332;51.384;0.040;2024-02-26T12:47:13;7.90;99.90
27707;DHT22;36332;51.384;0.040;2024-02-26T12:49:47;7.90;99.90
27707;DHT22;36332;51.384;0.040;2024-02-26T12:52:16;7.90;99.90
27707;DHT22;36332;51.384;0.040;2024-02-26T12:54:44;7.80;99.90
27707;DHT22;36332;51.384;0.040;2024-02-26T12:57:12;7.90;99.90
27707;DHT22;36332;51.384;0.040;2024-02-26T12:59:40;7.80;99.90
27707;DHT22;36332;51.384;0.040;2024-02-26T13:02:08;7.80;99.90
27707;DHT22;36332;51.384;0.040;2024-02-26T13:04:39;7.70;99.90
27707;DHT22;36332;51.384;0.040;2024-02-26T13:07:07;8.80;99.90
27707;DHT22;36332;51.384;0.040;2024-02-26T13:09:35;7.80;99.90
27707;DHT22;36332;51.384;0.040;2024-02-26T13:12:06;7.00;99.90
27707;DHT22;36332;51.384;0.040;2024-02-26T13:15:00;7.90;99.90
27707;DHT22;36332;51.384;0.040;2024-02-26T13:17:31;8.00;99.90
27707;DHT22;36332;51.384;0.040;2024-02-26T13:20:00;8.10;99.90
27707;DHT22;36332;51.384;0.040;2024-02-26T13:22:28;8.10;99.90
27707;DHT22;36332;51.384;0.040;2024-02-26T13:24:59;8.20;99.90
27707;DHT22;36332;51.384;0.040;2024-02-26T13:30:21;8.30;99.90
27707;DHT22;36332;51.384;0.040;2024-02-26T13:32:50;8.40;99.90
27707;DHT22;36332;51.384;0.040;2024-02-26T13:35:19;8.30;99.90
27707;DHT22;36332;51.384;0.040;2024-02-26T13:37:47;8.30;99.90
27707;DHT22;36332;51.384;0.040;2024-02-26T13:40:15;8.30;99.90
27707;DHT22;36332;51.384;0.040;2024-02-26T13:42:42;8.30;99.90
27707;DHT22;36332;51.384;0.040;2024-02-26T13:45:10;8.30;99.90
27707;DHT22;36332;51.384;0.040;2024-02-26T13:47:38;8.40;99.90
27707;DHT22;36332;51.384;0.040;2024-02-26T13:50:07;10.70;99.90
27707;DHT22;36332;51.384;0.040;2024-02-26T13:52:37;8.70;99.90
27707;DHT22;36332;51.384;0.040;2024-02-26T13:55:06;9.00;99.90
27707;DHT22;36332;51.384;0.040;2024-02-26T13:57:37;9.00;99.90
27707;DHT22;36332;51.384;0.040;2024-02-26T14:00:08;9.20;99.90
27707;DHT22;36332;51.384;0.040;2024-02-26T14:02:39;9.20;99.90
27707;DHT22;36332;51.384;0.040;2024-02-26T14:05:07;9.60;99.90
27707;DHT22;36332;51.384;0.040;2024-02-26T14:07:36;9.40;99.90
27707;DHT22;36332;51.384;0.040;2024-02-26T14:10:29;9.40;99.90
27707;DHT22;36332;51.384;0.040;2024-02-26T14:12:59;9.20;99.90
27707;DHT22;36332;51.384;0.040;2024-02-26T14:15:29;9.40;99.90
27707;DHT22;36332;51.384;0.040;2024-02-26T14:20:31;9.20;99.90
27707;DHT22;36332;51.384;0.040;2024-02-26T14:23:00;9.20;99.90
27707;DHT22;36332;51.384;0.040;2024-02-26T14:25:30;9.20;99.90
27707;DHT22;36332;51.384;0.040;2024-02-26T14:28:00;9.30;99.90
27707;DHT22;36332;51.384;0.040;2024-02-26T14:30:30;9.40;99.90
27707;DHT22;36332;51.384;0.040;2024-02-26T14:32:58;8.90;99.90
27707;DHT22;36332;51.384;0.040;2024-02-26T14:35:26;9.50;99.90
27707;DHT22;36332;51.384;0.040;2024-02-26T14:37:54;9.40;99.90
27707;DHT22;36332;51.384;0.040;2024-02-26T14:40:23;9.40;99.90
27707;DHT22;36332;51.384;0.040;2024-02-26T14:42:51;9.40;99.90
27707;DHT22;36332;51.384;0.040;2024-02-26T14:45:19;9.30;99.90
27707;DHT22;36332;51.384;0.040;2024-02-26T14:50:15;9.40;99.90
27707;DHT22;36332;51.384;0.040;2024-02-26T14:52:44;9.30;99.90
27707;DHT22;36332;51.384;0.040;2024-02-26T14:55:12;9.40;99.90
27707;DHT22;36332;51.384;0.040;2024-02-26T14:57:40;9.50;99.90
27707;DHT22;36332;51.384;0.040;2024-02-26T15:00:09;10.30;99.90
27707;DHT22;36332;51.384;0.040;2024-02-26T15:02:37;10.40;99.90
27707;DHT22;36332;51.384;0.040;2024-02-26T15:07:36;10.30;99.90
27707;DHT22;36332;51.384;0.040;2024-02-26T15:10:12;10.30;99.90
27707;DHT22;36332;51.384;0.040;2024-02-26T15:12:41;11.10;99.90
27707;DHT22;36332;51.384;0.040;2024-02-26T15:15:08;10.50;99.90
27707;DHT22;36332;51.384;0.040;2024-02-26T15:22:37;10.30;99.90
27707;DHT22;36332;51.384;0.040;2024-02-26T15:25:04;10.10;99.90
27707;DHT22;36332;51.384;0.040;2024-02-26T15:27:32;10.40;99.90
27707;DHT22;36332;51.384;0.040;2024-02-26T15:32:30;10.60;99.90
27707;DHT22;36332;51.384;0.040;2024-02-26T15:34:57;10.10;99.90
27707;DHT22;36332;51.384;0.040;2024-02-26T15:37:25;11.70;99.90
27707;DHT22;36332;51.384;0.040;2024-02-26T15:39:53;11.50;99.90
27707;DHT22;36332;51.384;0.040;2024-02-26T15:42:20;11.30;99.90
27707;DHT22;36332;51.384;0.040;2024-02-26T15:44:48;11.80;99.90
27707;DHT22;36332;51.384;0.040;2024-02-26T15:47:16;11.10;99.90
27707;DHT22;36332;51.384;0.040;2024-02-26T15:49:45;10.10;99.90
27707;DHT22;36332;51.384;0.040;2024-02-26T15:54:40;9.40;99.90
27707;DHT22;36332;51.384;0.040;2024-02-26T15:57:11;9.40;99.90
27707;DHT22;36332;51.384;0.040;2024-02-26T15:59:40;9.30;99.90
27707;DHT22;36332;51.384;0.040;2024-02-26T16:02:08;9.30;99.90
27707;DHT22;36332;51.384;0.040;2024-02-26T16:04:37;9.20;99.90
27707;DHT22;36332;51.384;0.040;2024-02-26T16:07:06;9.20;99.90
27707;DHT22;36332;51.384;0.040;2024-02-26T16:09:42;9.20;99.90
27707;DHT22;36332;51.384;0.040;2024-02-26T16:12:20;9.20;99.90
27707;DHT22;36332;51.384;0.040;2024-02-26T16:14:50;9.20;99.90
27707;DHT22;36332;51.384;0.040;2024-02-26T16:17:30;9.00;99.90
27707;DHT22;36332;51.384;0.040;2024-02-26T16:20:02;8.90;99.90
27707;DHT22;36332;51.384;0.040;2024-02-26T16:22:36;8.70;99.90
27707;DHT22;36332;51.384;0.040;2024-02-26T16:25:04;11.40;99.90
27707;DHT22;36332;51.384;0.040;2024-02-26T16:27:33;8.70;99.90
27707;DHT22;36332;51.384;0.040;2024-02-26T16:30:05;8.60;99.90
27707;DHT22;36332;51.384;0.040;2024-02-26T16:32:34;8.60;99.90
27707;DHT22;36332;51.384;0.040;2024-02-26T16:35:02;8.70;99.90
27707;DHT22;36332;51.384;0.040;2024-02-26T16:37:30;8.50;99.90
27707;DHT22;36332;51.384;0.040;2024-02-26T16:39:59;11.40;99.90
27707;DHT22;36332;51.384;0.040;2024-02-26T16:44:55;8.40;99.90
27707;DHT22;36332;51.384;0.040;2024-02-26T16:47:24;8.30;99.90
27707;DHT22;36332;51.384;0.040;2024-02-26T16:49:52;8.30;99.90
27707;DHT22;36332;51.384;0.040;2024-02-26T16:52:20;8.20;99.90
27707;DHT22;36332;51.384;0.040;2024-02-26T16:54:48;8.20;99.90
27707;DHT22;36332;51.384;0.040;2024-02-26T16:57:17;8.20;99.90
27707;DHT22;36332;51.384;0.040;2024-02-26T16:59:44;8.20;99.90
27707;DHT22;36332;51.384;0.040;2024-02-26T17:02:12;8.10;99.90
27707;DHT22;36332;51.384;0.040;2024-02-26T17:04:41;8.20;99.90
27707;DHT22;36332;51.384;0.040;2024-02-26T17:07:09;8.10;99.90
27707;DHT22;36332;51.384;0.040;2024-02-26T17:09:37;8.20;99.90
27707;DHT22;36332;51.384;0.040;2024-02-26T17:12:05;8.10;99.90
27707;DHT22;36332;51.384;0.040;2024-02-26T17:14:34;8.10;99.90
27707;DHT22;36332;51.384;0.040;2024-02-26T17:17:02;8.30;99.90
27707;DHT22;36332;51.384;0.040;2024-02-26T17:19:34;8.10;99.90
27707;DHT22;36332;51.384;0.040;2024-02-26T17:22:02;8.10;99.90
27707;DHT22;36332;51.384;0.040;2024-02-26T17:24:34;8.10;99.90
27707;DHT22;36332;51.384;0.040;2024-02-26T17:27:03;8.00;99.90
27707;DHT22;36332;51.384;0.040;2024-02-26T17:29:31;8.00;99.90
27707;DHT22;36332;51.384;0.040;2024-02-26T17:31:58;8.00;99.90
27707;DHT22;36332;51.384;0.040;2024-02-26T17:34:26;7.90;99.90
27707;DHT22;36332;51.384;0.040;2024-02-26T17:36:55;7.80;99.90
27707;DHT22;36332;51.384;0.040;2024-02-26T17:39:23;7.80;99.90
27707;DHT22;36332;51.384;0.040;2024-02-26T17:41:52;9.10;99.90
27707;DHT22;36332;51.384;0.040;2024-02-26T17:44:20;7.70;99.90
27707;DHT22;36332;51.384;0.040;2024-02-26T17:46:51;7.70;99.90
27707;DHT22;36332;51.384;0.040;2024-02-26T17:49:18;7.60;99.90
27707;DHT22;36332;51.384;0.040;2024-02-26T17:51:52;7.60;99.90
27707;DHT22;36332;51.384;0.040;2024-02-26T17:56:48;7.50;99.90
27707;DHT22;36332;51.384;0.040;2024-02-26T17:59:16;7.40;99.90
27707;DHT22;36332;51.384;0.040;2024-02-26T18:01:45;7.30;99.90
27707;DHT22;36332;51.384;0.040;2024-02-26T18:04:12;7.30;99.90
27707;DHT22;36332;51.384;0.040;2024-02-26T18:06:40;7.30;99.90
27707;DHT22;36332;51.384;0.040;2024-02-26T18:11:43;7.20;99.90
27707;DHT22;36332;51.384;0.040;2024-02-26T18:14:12;7.20;99.90
27707;DHT22;36332;51.384;0.040;2024-02-26T18:16:40;7.20;99.90
27707;DHT22;36332;51.384;0.040;2024-02-26T18:19:07;6.90;99.90
27707;DHT22;36332;51.384;0.040;2024-02-26T18:21:35;7.10;99.90
27707;DHT22;36332;51.384;0.040;2024-02-26T18:26:32;7.40;99.90
27707;DHT22;36332;51.384;0.040;2024-02-26T18:29:02;7.10;99.90
27707;DHT22;36332;51.384;0.040;2024-02-26T18:31:32;7.10;99.90
27707;DHT22;36332;51.384;0.040;2024-02-26T18:34:00;8.40;99.90
27707;DHT22;36332;51.384;0.040;2024-02-26T18:36:28;7.10;99.90
27707;DHT22;36332;51.384;0.040;2024-02-26T18:38:56;7.10;99.90
27707;DHT22;36332;51.384;0.040;2024-02-26T18:43:53;7.20;99.90
27707;DHT22;36332;51.384;0.040;2024-02-26T18:48:49;7.10;99.90
27707;DHT22;36332;51.384;0.040;2024-02-26T18:51:17;7.10;99.90
27707;DHT22;36332;51.384;0.040;2024-02-26T18:53:45;7.10;99.90
27707;DHT22;36332;51.384;0.040;2024-02-26T18:56:14;7.10;99.90
27707;DHT22;36332;51.384;0.040;2024-02-26T18:59:08;7.70;99.90
27707;DHT22;36332;51.384;0.040;2024-02-26T19:01:36;7.00;99.90
27707;DHT22;36332;51.384;0.040;2024-02-26T19:04:11;7.00;99.90
27707;DHT22;36332;51.384;0.040;2024-02-26T19:06:39;7.00;99.90
27707;DHT22;36332;51.384;0.040;2024-02-26T19:09:09;7.00;99.90
27707;DHT22;36332;51.384;0.040;2024-02-26T19:11:37;7.00;99.90
27707;DHT22;36332;51.384;0.040;2024-02-26T19:16:35;7.00;99.90
27707;DHT22;36332;51.384;0.040;2024-02-26T19:19:03;7.00;99.90
27707;DHT22;36332;51.384;0.040;2024-02-26T19:21:32;7.00;99.90
27707;DHT22;36332;51.384;0.040;2024-02-26T19:24:03;7.00;99.90
27707;DHT22;36332;51.384;0.040;2024-02-26T19:26:32;7.00;99.90
27707;DHT22;36332;51.384;0.040;2024-02-26T19:29:01;7.00;99.90
27707;DHT22;36332;51.384;0.040;2024-02-26T19:31:35;6.90;99.90
27707;DHT22;36332;51.384;0.040;2024-02-26T19:34:03;9.30;99.90
27707;DHT22;36332;51.384;0.040;2024-02-26T19:36:31;6.70;99.90
27707;DHT22;36332;51.384;0.040;2024-02-26T19:38:59;7.60;99.90
27707;DHT22;36332;51.384;0.040;2024-02-26T19:41:27;6.70;99.90
27707;DHT22;36332;51.384;0.040;2024-02-26T19:43:55;6.80;99.90
27707;DHT22;36332;51.384;0.040;2024-02-26T19:46:23;6.80;99.90
27707;DHT22;36332;51.384;0.040;2024-02-26T19:48:50;4.90;99.90
27707;DHT22;36332;51.384;0.040;2024-02-26T19:51:19;6.80;99.90
27707;DHT22;36332;51.384;0.040;2024-02-26T19:53:47;6.80;99.90
27707;DHT22;36332;51.384;0.040;2024-02-26T19:56:15;6.70;99.90
27707;DHT22;36332;51.384;0.040;2024-02-26T19:58:43;6.90;99.90
27707;DHT22;36332;51.384;0.040;2024-02-26T20:01:11;6.60;99.90
27707;DHT22;36332;51.384;0.040;2024-02-26T20:03:39;6.60;99.90
27707;DHT22;36332;51.384;0.040;2024-02-26T20:06:11;6.30;99.90
27707;DHT22;36332;51.384;0.040;2024-02-26T20:08:39;6.50;99.90
27707;DHT22;36332;51.384;0.040;2024-02-26T20:11:07;6.60;99.90
27707;DHT22;36332;51.384;0.040;2024-02-26T20:13:34;4.30;99.90
27707;DHT22;36332;51.384;0.040;2024-02-26T20:16:02;6.30;99.90
27707;DHT22;36332;51.384;0.040;2024-02-26T20:18:30;6.30;99.90
27707;DHT22;36332;51.384;0.040;2024-02-26T20:20:58;7.20;99.90
27707;DHT22;36332;51.384;0.040;2024-02-26T20:23:26;6.30;99.90
27707;DHT22;36332;51.384;0.040;2024-02-26T20:25:55;6.20;99.90
27707;DHT22;36332;51.384;0.040;2024-02-26T20:28:25;6.40;99.90
27707;DHT22;36332;51.384;0.040;2024-02-26T20:30:53;6.20;99.90
27707;DHT22;36332;51.384;0.040;2024-02-26T20:33:21;6.20;99.90
27707;DHT22;36332;51.384;0.040;2024-02-26T20:35:49;6.10;99.90
27707;DHT22;36332;51.384;0.040;2024-02-26T20:38:16;6.00;99.90
27707;DHT22;36332;51.384;0.040;2024-02-26T20:40:45;5.90;99.90
27707;DHT22;36332;51.384;0.040;2024-02-26T20:43:13;5.80;99.90
27707;DHT22;36332;51.384;0.040;2024-02-26T20:45:41;5.90;99.90
27707;DHT22;36332;51.384;0.040;2024-02-26T20:48:11;5.70;99.90
27707;DHT22;36332;51.384;0.040;2024-02-26T20:50:38;5.60;99.90
27707;DHT22;36332;51.384;0.040;2024-02-26T20:53:07;4.70;99.90
27707;DHT22;36332;51.384;0.040;2024-02-26T20:55:39;5.60;99.90
27707;DHT22;36332;51.384;0.040;2024-02-26T20:58:07;5.40;99.90
27707;DHT22;36332;51.384;0.040;2024-02-26T21:00:37;5.50;99.90
27707;DHT22;36332;51.384;0.040;2024-02-26T21:03:11;5.70;99.90
27707;DHT22;36332;51.384;0.040;2024-02-26T21:05:39;5.40;99.90
27707;DHT22;36332;51.384;0.040;2024-02-26T21:08:09;5.50;99.90
27707;DHT22;36332;51.384;0.040;2024-02-26T21:10:51;5.30;99.90
27707;DHT22;36332;51.384;0.040;2024-02-26T21:13:20;5.50;99.90
27707;DHT22;36332;51.384;0.040;2024-02-26T21:15:47;5.30;99.90
27707;DHT22;36332;51.384;0.040;2024-02-26T21:20:44;5.10;99.90
27707;DHT22;36332;51.384;0.040;2024-02-26T21:23:13;5.10;99.90
27707;DHT22;36332;51.384;0.040;2024-02-26T21:25:41;5.20;99.90
27707;DHT22;36332;51.384;0.040;2024-02-26T21:28:10;5.10;99.90
27707;DHT22;36332;51.384;0.040;2024-02-26T21:30:38;5.10;99.90
27707;DHT22;36332;51.384;0.040;2024-02-26T21:33:06;5.10;99.90
27707;DHT22;36332;51.384;0.040;2024-02-26T21:38:02;5.00;99.90
27707;DHT22;36332;51.384;0.040;2024-02-26T21:40:33;4.90;99.90
27707;DHT22;36332;51.384;0.040;2024-02-26T21:43:00;5.60;99.90
27707;DHT22;36332;51.384;0.040;2024-02-26T21:45:28;4.90;99.90
27707;DHT22;36332;51.384;0.040;2024-02-26T21:47:56;4.00;99.90
27707;DHT22;36332;51.384;0.040;2024-02-26T21:50:23;4.90;99.90
27707;DHT22;36332;51.384;0.040;2024-02-26T21:52:51;4.20;99.90
27707;DHT22;36332;51.384;0.040;2024-02-26T21:55:19;4.80;99.90
27707;DHT22;36332;51.384;0.040;2024-02-26T21:57:47;4.80;99.90
27707;DHT22;36332;51.384;0.040;2024-02-26T22:00:16;4.80;99.90
27707;DHT22;36332;51.384;0.040;2024-02-26T22:02:43;4.80;99.90
27707;DHT22;36332;51.384;0.040;2024-02-26T22:05:11;6.50;99.90
27707;DHT22;36332;51.384;0.040;2024-02-26T22:07:40;5.20;99.90
27707;DHT22;36332;51.384;0.040;2024-02-26T22:10:09;4.80;99.90
27707;DHT22;36332;51.384;0.040;2024-02-26T22:12:37;4.80;99.90
27707;DHT22;36332;51.384;0.040;2024-02-26T22:15:05;4.70;99.90
27707;DHT22;36332;51.384;0.040;2024-02-26T22:17:35;4.70;99.90
27707;DHT22;36332;51.384;0.040;2024-02-26T22:20:04;4.40;99.90
27707;DHT22;36332;51.384;0.040;2024-02-26T22:29:48;4.70;99.90
27707;DHT22;36332;51.384;0.040;2024-02-26T22:32:15;4.60;99.90
27707;DHT22;36332;51.384;0.040;2024-02-26T22:34:43;4.60;99.90
27707;DHT22;36332;51.384;0.040;2024-02-26T22:37:11;4.60;99.90
27707;DHT22;36332;51.384;0.040;2024-02-26T22:39:41;4.60;99.90
27707;DHT22;36332;51.384;0.040;2024-02-26T22:42:09;4.60;99.90
27707;DHT22;36332;51.384;0.040;2024-02-26T22:44:40;4.60;99.90
27707;DHT22;36332;51.384;0.040;2024-02-26T22:47:07;4.60;99.90
27707;DHT22;36332;51.384;0.040;2024-02-26T22:49:35;4.60;99.90
27707;DHT22;36332;51.384;0.040;2024-02-26T22:52:07;4.50;99.90
27707;DHT22;36332;51.384;0.040;2024-02-26T22:54:35;4.50;99.90
27707;DHT22;36332;51.384;0.040;2024-02-26T22:57:03;4.40;99.90
27707;DHT22;36332;51.384;0.040;2024-02-26T22:59:31;4.50;99.90
27707;DHT22;36332;51.384;0.040;2024-02-26T23:04:27;4.50;99.90
27707;DHT22;36332;51.384;0.040;2024-02-26T23:11:52;4.40;99.90
27707;DHT22;36332;51.384;0.040;2024-02-26T23:16:49;4.40;99.90
27707;DHT22;36332;51.384;0.040;2024-02-26T23:19:17;4.50;99.90
27707;DHT22;36332;51.384;0.040;2024-02-26T23:24:13;4.50;99.90
27707;DHT22;36332;51.384;0.040;2024-02-26T23:26:42;4.50;99.90
27707;DHT22;36332;51.384;0.040;2024-02-26T23:29:09;4.40;99.90
27707;DHT22;36332;51.384;0.040;2024-02-26T23:34:05;4.50;99.90
27707;DHT22;36332;51.384;0.040;2024-02-26T23:39:01;4.60;99.90
27707;DHT22;36332;51.384;0.040;2024-02-26T23:41:29;4.70;99.90